sensor_id;sensor_type;location;lat;lon;timestamp;pressure;altitude;pressure_sealevel;temperature;humidity
77739;BME280;66904;59.926;30.404;2023-02-13T00:01:35;101189.81;;;28.15;25.87
77739;BME280;66904;59.926;30.404;2023-02-13T00:06:51;101197.34;;;28.19;25.27
77739;BME280;66904;59.926;30.404;2023-02-13T00:11:52;101196.31;;;28.20;25.60
77739;BME280;66904;59.926;30.404;2023-02-13T00:17:07;101198.16;;;28.27;25.65
77739;BME280;66904;59.926;30.404;2023-02-13T00:27:36;101196.69;;;28.24;25.76
77739;BME280;66904;59.926;30.404;2023-02-13T00:38:45;101198.19;;;28.20;25.89
77739;BME280;66904;59.926;30.404;2023-02-13T00:43:47;101200.91;;;28.20;25.21
77739;BME280;66904;59.926;30.404;2023-02-13T00:49:09;101199.00;;;28.27;25.33
77739;BME280;66904;59.926;30.404;2023-02-13T00:54:46;101188.31;;;28.26;25.76
77739;BME280;66904;59.926;30.404;2023-02-13T01:00:06;101185.84;;;28.17;25.69
77739;BME280;66904;59.926;30.404;2023-02-13T01:05:38;101180.16;;;28.26;25.13
77739;BME280;66904;59.926;30.404;2023-02-13T01:10:39;101179.34;;;28.18;25.59
77739;BME280;66904;59.926;30.404;2023-02-13T01:15:40;101163.41;;;28.22;25.51
77739;BME280;66904;59.926;30.404;2023-02-13T01:20:42;101160.94;;;28.20;25.31
77739;BME280;66904;59.926;30.404;2023-02-13T01:31:47;101171.81;;;28.20;24.80
77739;BME280;66904;59.926;30.404;2023-02-13T01:36:47;101167.41;;;28.19;25.37
77739;BME280;66904;59.926;30.404;2023-02-13T01:41:48;101159.69;;;28.16;24.75
77739;BME280;66904;59.926;30.404;2023-02-13T01:46:49;101161.97;;;28.19;24.86
77739;BME280;66904;59.926;30.404;2023-02-13T01:52:13;101147.31;;;28.20;25.17
77739;BME280;66904;59.926;30.404;2023-02-13T01:57:30;101155.50;;;28.14;24.57
77739;BME280;66904;59.926;30.404;2023-02-13T02:02:36;101149.66;;;28.17;24.78
77739;BME280;66904;59.926;30.404;2023-02-13T02:07:54;101137.53;;;28.13;24.62
77739;BME280;66904;59.926;30.404;2023-02-13T02:13:18;101151.28;;;28.18;24.66
77739;BME280;66904;59.926;30.404;2023-02-13T02:18:22;101135.41;;;28.15;24.49
77739;BME280;66904;59.926;30.404;2023-02-13T02:41:29;101145.22;;;28.22;24.56
77739;BME280;66904;59.926;30.404;2023-02-13T02:47:08;101144.81;;;28.19;24.38
77739;BME280;66904;59.926;30.404;2023-02-13T03:03:59;101140.25;;;28.13;24.07
77739;BME280;66904;59.926;30.404;2023-02-13T03:09:23;101125.56;;;28.14;24.31
77739;BME280;66904;59.926;30.404;2023-02-13T03:14:43;101122.50;;;28.35;24.36
77739;BME280;66904;59.926;30.404;2023-02-13T03:25:24;101103.16;;;28.18;24.04
77739;BME280;66904;59.926;30.404;2023-02-13T03:36:49;101085.94;;;28.24;23.94
77739;BME280;66904;59.926;30.404;2023-02-13T03:42:12;101075.34;;;28.16;24.33
77739;BME280;66904;59.926;30.404;2023-02-13T03:47:14;101078.06;;;28.16;24.46
77739;BME280;66904;59.926;30.404;2023-02-13T04:03:33;101106.72;;;28.19;24.32
77739;BME280;66904;59.926;30.404;2023-02-13T04:08:36;101087.88;;;28.17;24.04
77739;BME280;66904;59.926;30.404;2023-02-13T04:13:47;101059.84;;;28.17;24.00
77739;BME280;66904;59.926;30.404;2023-02-13T04:18:51;101043.59;;;28.04;23.99
77739;BME280;66904;59.926;30.404;2023-02-13T04:23:52;101049.19;;;28.15;24.17
77739;BME280;66904;59.926;30.404;2023-02-13T04:28:52;101060.00;;;28.22;23.83
77739;BME280;66904;59.926;30.404;2023-02-13T04:33:53;101047.63;;;28.26;24.40
77739;BME280;66904;59.926;30.404;2023-02-13T04:38:56;101058.28;;;28.28;24.24
77739;BME280;66904;59.926;30.404;2023-02-13T04:44:00;101050.81;;;28.23;24.79
77739;BME280;66904;59.926;30.404;2023-02-13T04:49:00;101060.16;;;28.34;24.94
77739;BME280;66904;59.926;30.404;2023-02-13T04:54:01;101067.44;;;28.40;24.92
77739;BME280;66904;59.926;30.404;2023-02-13T04:59:01;101063.69;;;28.34;24.71
77739;BME280;66904;59.926;30.404;2023-02-13T05:04:02;101072.41;;;28.43;24.77
77739;BME280;66904;59.926;30.404;2023-02-13T05:09:02;101080.59;;;28.43;24.30
77739;BME280;66904;59.926;30.404;2023-02-13T05:14:03;101069.91;;;28.41;24.73
77739;BME280;66904;59.926;30.404;2023-02-13T05:19:03;101056.16;;;28.36;24.10
77739;BME280;66904;59.926;30.404;2023-02-13T05:24:04;101055.75;;;28.33;24.40
77739;BME280;66904;59.926;30.404;2023-02-13T05:29:05;101052.03;;;28.27;24.11
77739;BME280;66904;59.926;30.404;2023-02-13T05:34:18;101044.38;;;28.42;23.79
77739;BME280;66904;59.926;30.404;2023-02-13T05:39:18;101019.19;;;28.22;23.86
77739;BME280;66904;59.926;30.404;2023-02-13T05:44:19;101037.84;;;28.18;24.19
77739;BME280;66904;59.926;30.404;2023-02-13T05:49:19;101040.63;;;28.12;23.88
77739;BME280;66904;59.926;30.404;2023-02-13T05:54:20;101040.88;;;28.10;24.25
77739;BME280;66904;59.926;30.404;2023-02-13T05:59:21;101046.06;;;28.12;23.59
77739;BME280;66904;59.926;30.404;2023-02-13T06:04:21;101036.66;;;28.08;23.75
77739;BME280;66904;59.926;30.404;2023-02-13T06:09:22;101035.44;;;28.04;23.96
77739;BME280;66904;59.926;30.404;2023-02-13T06:14:22;101026.44;;;28.03;24.13
77739;BME280;66904;59.926;30.404;2023-02-13T06:19:23;101019.53;;;28.01;24.16
77739;BME280;66904;59.926;30.404;2023-02-13T06:24:23;101030.81;;;28.04;23.63
77739;BME280;66904;59.926;30.404;2023-02-13T06:29:24;101018.53;;;27.95;23.83
77739;BME280;66904;59.926;30.404;2023-02-13T06:34:24;101014.94;;;28.01;23.97
77739;BME280;66904;59.926;30.404;2023-02-13T06:39:25;101012.03;;;27.96;24.00
77739;BME280;66904;59.926;30.404;2023-02-13T06:44:25;100991.97;;;27.97;24.23
77739;BME280;66904;59.926;30.404;2023-02-13T06:49:26;100987.97;;;28.00;23.87
77739;BME280;66904;59.926;30.404;2023-02-13T06:54:26;100981.69;;;27.99;24.29
77739;BME280;66904;59.926;30.404;2023-02-13T06:59:27;100983.34;;;28.00;24.26
77739;BME280;66904;59.926;30.404;2023-02-13T07:04:27;100968.69;;;28.01;24.31
77739;BME280;66904;59.926;30.404;2023-02-13T07:09:28;100961.16;;;28.03;23.85
77739;BME280;66904;59.926;30.404;2023-02-13T07:14:29;100952.16;;;28.03;23.86
77739;BME280;66904;59.926;30.404;2023-02-13T07:19:31;100957.19;;;27.99;23.76
77739;BME280;66904;59.926;30.404;2023-02-13T07:24:31;100935.44;;;27.99;23.89
77739;BME280;66904;59.926;30.404;2023-02-13T07:29:34;100936.72;;;27.97;23.77
77739;BME280;66904;59.926;30.404;2023-02-13T07:34:34;100928.56;;;27.97;24.01
77739;BME280;66904;59.926;30.404;2023-02-13T07:39:35;100914.13;;;27.96;23.91
77739;BME280;66904;59.926;30.404;2023-02-13T07:44:38;100905.72;;;27.98;24.00
77739;BME280;66904;59.926;30.404;2023-02-13T07:49:38;100883.59;;;27.94;23.68
77739;BME280;66904;59.926;30.404;2023-02-13T07:54:39;100886.47;;;27.99;23.78
77739;BME280;66904;59.926;30.404;2023-02-13T07:59:46;100861.03;;;27.94;23.59
77739;BME280;66904;59.926;30.404;2023-02-13T08:04:46;100885.44;;;28.00;23.50
77739;BME280;66904;59.926;30.404;2023-02-13T08:09:47;100868.28;;;28.00;23.58
77739;BME280;66904;59.926;30.404;2023-02-13T08:15:09;100861.16;;;27.99;23.72
77739;BME280;66904;59.926;30.404;2023-02-13T08:20:10;100851.34;;;27.98;23.67
77739;BME280;66904;59.926;30.404;2023-02-13T08:25:12;100846.34;;;27.95;23.71
77739;BME280;66904;59.926;30.404;2023-02-13T08:30:13;100844.97;;;27.86;23.47
77739;BME280;66904;59.926;30.404;2023-02-13T08:35:14;100852.69;;;27.89;23.34
77739;BME280;66904;59.926;30.404;2023-02-13T08:40:15;100864.41;;;27.89;23.53
77739;BME280;66904;59.926;30.404;2023-02-13T08:45:15;100860.25;;;27.87;23.68
77739;BME280;66904;59.926;30.404;2023-02-13T08:50:16;100844.97;;;27.86;22.97
77739;BME280;66904;59.926;30.404;2023-02-13T08:55:17;100837.66;;;27.86;23.12
77739;BME280;66904;59.926;30.404;2023-02-13T09:00:17;100833.25;;;27.85;23.26
77739;BME280;66904;59.926;30.404;2023-02-13T09:05:18;100831.75;;;27.89;23.36
77739;BME280;66904;59.926;30.404;2023-02-13T09:10:19;100825.28;;;27.90;23.29
77739;BME280;66904;59.926;30.404;2023-02-13T09:15:20;100811.22;;;27.93;23.41
77739;BME280;66904;59.926;30.404;2023-02-13T09:20:20;100813.72;;;27.95;23.89
77739;BME280;66904;59.926;30.404;2023-02-13T09:25:21;100799.44;;;27.99;23.68
77739;BME280;66904;59.926;30.404;2023-02-13T09:30:21;100800.41;;;28.05;23.43
77739;BME280;66904;59.926;30.404;2023-02-13T09:35:22;100791.16;;;28.12;23.43
77739;BME280;66904;59.926;30.404;2023-02-13T09:40:31;100798.66;;;28.17;23.47
77739;BME280;66904;59.926;30.404;2023-02-13T09:45:35;100778.16;;;28.14;23.34
77739;BME280;66904;59.926;30.404;2023-02-13T09:50:37;100771.22;;;28.18;23.37
77739;BME280;66904;59.926;30.404;2023-02-13T09:55:50;100766.97;;;28.22;23.42
77739;BME280;66904;59.926;30.404;2023-02-13T10:00:57;100767.19;;;28.21;23.27
77739;BME280;66904;59.926;30.404;2023-02-13T10:17:16;100760.88;;;28.27;23.16
77739;BME280;66904;59.926;30.404;2023-02-13T10:22:24;100754.59;;;28.27;22.99
77739;BME280;66904;59.926;30.404;2023-02-13T10:27:43;100750.69;;;28.34;22.74
77739;BME280;66904;59.926;30.404;2023-02-13T10:38:20;100727.75;;;28.30;23.25
77739;BME280;66904;59.926;30.404;2023-02-13T10:43:26;100720.41;;;28.31;23.01
77739;BME280;66904;59.926;30.404;2023-02-13T11:04:18;100711.19;;;28.32;23.05
77739;BME280;66904;59.926;30.404;2023-02-13T11:09:19;100715.31;;;28.34;23.29
77739;BME280;66904;59.926;30.404;2023-02-13T11:14:23;100700.44;;;28.37;23.25
77739;BME280;66904;59.926;30.404;2023-02-13T11:19:25;100720.09;;;28.39;23.21
77739;BME280;66904;59.926;30.404;2023-02-13T11:24:29;100706.47;;;28.39;22.62
77739;BME280;66904;59.926;30.404;2023-02-13T11:29:32;100693.72;;;28.39;23.17
77739;BME280;66904;59.926;30.404;2023-02-13T11:34:33;100694.53;;;28.40;22.68
77739;BME280;66904;59.926;30.404;2023-02-13T11:39:34;100694.28;;;28.41;23.22
77739;BME280;66904;59.926;30.404;2023-02-13T11:44:34;100702.25;;;28.43;22.79
77739;BME280;66904;59.926;30.404;2023-02-13T11:49:36;100703.91;;;28.44;23.28
77739;BME280;66904;59.926;30.404;2023-02-13T11:54:41;100708.91;;;28.47;23.34
77739;BME280;66904;59.926;30.404;2023-02-13T11:59:43;100699.66;;;28.48;23.15
77739;BME280;66904;59.926;30.404;2023-02-13T12:04:45;100691.25;;;28.49;23.76
77739;BME280;66904;59.926;30.404;2023-02-13T12:09:52;100678.13;;;28.46;23.66
77739;BME280;66904;59.926;30.404;2023-02-13T12:14:57;100692.41;;;28.42;23.51
77739;BME280;66904;59.926;30.404;2023-02-13T12:20:00;100698.47;;;28.44;23.76
77739;BME280;66904;59.926;30.404;2023-02-13T12:40:54;100698.41;;;28.62;23.87
77739;BME280;66904;59.926;30.404;2023-02-13T12:46:05;100701.69;;;28.52;23.26
77739;BME280;66904;59.926;30.404;2023-02-13T12:56:35;100707.72;;;28.54;23.49
77739;BME280;66904;59.926;30.404;2023-02-13T13:07:12;100714.25;;;28.53;23.60
77739;BME280;66904;59.926;30.404;2023-02-13T13:23:01;100701.22;;;28.55;23.08
77739;BME280;66904;59.926;30.404;2023-02-13T13:28:17;100692.59;;;28.58;23.51
77739;BME280;66904;59.926;30.404;2023-02-13T13:33:23;100693.41;;;28.59;23.10
77739;BME280;66904;59.926;30.404;2023-02-13T13:38:30;100700.47;;;28.78;23.32
77739;BME280;66904;59.926;30.404;2023-02-13T13:44:09;100699.63;;;28.66;22.97
77739;BME280;66904;59.926;30.404;2023-02-13T13:54:33;100709.75;;;28.59;22.84
77739;BME280;66904;59.926;30.404;2023-02-13T14:04:38;100704.53;;;28.57;23.05
77739;BME280;66904;59.926;30.404;2023-02-13T14:09:42;100692.31;;;28.48;23.06
77739;BME280;66904;59.926;30.404;2023-02-13T14:14:44;100688.06;;;28.52;23.30
77739;BME280;66904;59.926;30.404;2023-02-13T14:19:51;100690.91;;;28.57;23.08
77739;BME280;66904;59.926;30.404;2023-02-13T14:25:06;100700.38;;;28.55;23.38
77739;BME280;66904;59.926;30.404;2023-02-13T14:30:37;100720.06;;;28.57;23.99
77739;BME280;66904;59.926;30.404;2023-02-13T14:35:38;100720.59;;;28.47;23.97
77739;BME280;66904;59.926;30.404;2023-02-13T14:40:50;100731.38;;;28.54;24.74
77739;BME280;66904;59.926;30.404;2023-02-13T14:51:19;100752.94;;;28.55;25.01
77739;BME280;66904;59.926;30.404;2023-02-13T14:56:28;100753.53;;;28.57;24.63
77739;BME280;66904;59.926;30.404;2023-02-13T15:01:33;100760.44;;;28.60;25.09
77739;BME280;66904;59.926;30.404;2023-02-13T15:06:39;100763.16;;;28.60;24.86
77739;BME280;66904;59.926;30.404;2023-02-13T15:11:42;100768.22;;;28.56;24.77
77739;BME280;66904;59.926;30.404;2023-02-13T15:16:46;100776.41;;;28.56;24.47
77739;BME280;66904;59.926;30.404;2023-02-13T15:22:00;100781.38;;;28.59;24.65
77739;BME280;66904;59.926;30.404;2023-02-13T15:27:05;100788.78;;;28.52;24.59
77739;BME280;66904;59.926;30.404;2023-02-13T15:32:23;100781.22;;;28.54;24.87
77739;BME280;66904;59.926;30.404;2023-02-13T15:37:29;100779.66;;;28.47;24.55
77739;BME280;66904;59.926;30.404;2023-02-13T15:42:38;100787.47;;;28.43;24.90
77739;BME280;66904;59.926;30.404;2023-02-13T15:47:39;100802.56;;;28.39;24.31
77739;BME280;66904;59.926;30.404;2023-02-13T15:52:42;100798.19;;;28.38;24.71
77739;BME280;66904;59.926;30.404;2023-02-13T15:57:43;100798.19;;;28.38;24.73
77739;BME280;66904;59.926;30.404;2023-02-13T16:02:45;100801.94;;;28.37;24.33
77739;BME280;66904;59.926;30.404;2023-02-13T16:07:51;100799.47;;;28.36;24.24
77739;BME280;66904;59.926;30.404;2023-02-13T16:12:52;100790.09;;;28.32;24.14
77739;BME280;66904;59.926;30.404;2023-02-13T16:17:54;100788.00;;;28.34;24.54
77739;BME280;66904;59.926;30.404;2023-02-13T16:23:07;100797.13;;;28.39;24.82
77739;BME280;66904;59.926;30.404;2023-02-13T16:28:19;100799.22;;;28.37;24.49
77739;BME280;66904;59.926;30.404;2023-02-13T16:33:34;100800.69;;;28.40;24.42
77739;BME280;66904;59.926;30.404;2023-02-13T16:38:41;100813.66;;;28.38;24.72
77739;BME280;66904;59.926;30.404;2023-02-13T16:43:43;100820.13;;;28.43;24.62
77739;BME280;66904;59.926;30.404;2023-02-13T16:48:46;100823.22;;;28.47;25.04
77739;BME280;66904;59.926;30.404;2023-02-13T16:53:56;100835.75;;;28.48;24.94
77739;BME280;66904;59.926;30.404;2023-02-13T16:59:09;100848.69;;;28.52;24.99
77739;BME280;66904;59.926;30.404;2023-02-13T17:04:24;100856.00;;;28.52;24.29
77739;BME280;66904;59.926;30.404;2023-02-13T17:14:54;100872.34;;;28.52;24.24
77739;BME280;66904;59.926;30.404;2023-02-13T17:19:55;100862.06;;;28.54;24.24
77739;BME280;66904;59.926;30.404;2023-02-13T17:24:57;100851.25;;;28.47;24.13
77739;BME280;66904;59.926;30.404;2023-02-13T17:29:58;100851.16;;;28.54;24.20
77739;BME280;66904;59.926;30.404;2023-02-13T17:34:59;100866.22;;;28.56;24.30
77739;BME280;66904;59.926;30.404;2023-02-13T17:39:59;100882.69;;;28.61;24.05
77739;BME280;66904;59.926;30.404;2023-02-13T17:44:59;100874.31;;;28.63;24.39
77739;BME280;66904;59.926;30.404;2023-02-13T17:50:00;100874.91;;;28.65;23.86
77739;BME280;66904;59.926;30.404;2023-02-13T17:55:01;100867.78;;;28.64;24.29
77739;BME280;66904;59.926;30.404;2023-02-13T18:00:02;100884.38;;;28.62;24.08
77739;BME280;66904;59.926;30.404;2023-02-13T18:05:04;100892.53;;;28.62;23.95
77739;BME280;66904;59.926;30.404;2023-02-13T18:10:17;100891.06;;;28.66;24.05
77739;BME280;66904;59.926;30.404;2023-02-13T18:15:19;100888.16;;;28.61;23.80
77739;BME280;66904;59.926;30.404;2023-02-13T18:20:20;100899.28;;;28.60;23.98
77739;BME280;66904;59.926;30.404;2023-02-13T18:25:21;100892.63;;;28.56;23.83
77739;BME280;66904;59.926;30.404;2023-02-13T18:30:23;100909.16;;;28.54;23.78
77739;BME280;66904;59.926;30.404;2023-02-13T18:35:23;100914.03;;;28.52;23.67
77739;BME280;66904;59.926;30.404;2023-02-13T18:40:24;100921.13;;;28.53;23.95
77739;BME280;66904;59.926;30.404;2023-02-13T18:45:25;100918.34;;;28.60;24.92
77739;BME280;66904;59.926;30.404;2023-02-13T18:50:25;100921.78;;;28.73;25.48
77739;BME280;66904;59.926;30.404;2023-02-13T18:55:26;100924.09;;;28.88;26.69
77739;BME280;66904;59.926;30.404;2023-02-13T19:00:27;100922.88;;;29.02;27.77
77739;BME280;66904;59.926;30.404;2023-02-13T19:05:27;100921.28;;;29.13;27.55
77739;BME280;66904;59.926;30.404;2023-02-13T19:10:28;100928.38;;;29.14;26.77
77739;BME280;66904;59.926;30.404;2023-02-13T19:15:28;100938.88;;;29.10;26.07
77739;BME280;66904;59.926;30.404;2023-02-13T19:20:29;100952.97;;;29.07;26.21
77739;BME280;66904;59.926;30.404;2023-02-13T19:25:29;100958.06;;;29.04;26.42
77739;BME280;66904;59.926;30.404;2023-02-13T19:30:30;100962.31;;;29.00;25.80
77739;BME280;66904;59.926;30.404;2023-02-13T19:35:30;100964.03;;;28.94;25.76
77739;BME280;66904;59.926;30.404;2023-02-13T19:40:32;100984.19;;;28.93;25.66
77739;BME280;66904;59.926;30.404;2023-02-13T19:45:34;100982.72;;;28.91;25.57
77739;BME280;66904;59.926;30.404;2023-02-13T19:50:35;100999.31;;;28.89;25.14
77739;BME280;66904;59.926;30.404;2023-02-13T19:55:35;101003.34;;;28.87;25.10
77739;BME280;66904;59.926;30.404;2023-02-13T20:00:36;101001.66;;;28.86;25.12
77739;BME280;66904;59.926;30.404;2023-02-13T20:05:40;101003.09;;;28.88;25.33
77739;BME280;66904;59.926;30.404;2023-02-13T20:10:44;101013.38;;;28.86;25.31
77739;BME280;66904;59.926;30.404;2023-02-13T20:15:45;101001.28;;;28.82;25.13
77739;BME280;66904;59.926;30.404;2023-02-13T20:20:46;101012.38;;;28.81;24.99
77739;BME280;66904;59.926;30.404;2023-02-13T20:25:46;101017.03;;;28.80;24.88
77739;BME280;66904;59.926;30.404;2023-02-13T20:30:47;101024.75;;;28.83;25.22
77739;BME280;66904;59.926;30.404;2023-02-13T20:35:47;101023.91;;;28.83;25.19
77739;BME280;66904;59.926;30.404;2023-02-13T20:40:49;101023.66;;;28.84;25.43
77739;BME280;66904;59.926;30.404;2023-02-13T20:45:49;101027.22;;;28.85;25.69
77739;BME280;66904;59.926;30.404;2023-02-13T20:51:00;101052.28;;;28.93;26.38
77739;BME280;66904;59.926;30.404;2023-02-13T21:01:11;101057.34;;;28.90;26.43
77739;BME280;66904;59.926;30.404;2023-02-13T21:06:12;101067.41;;;28.89;26.03
77739;BME280;66904;59.926;30.404;2023-02-13T21:11:12;101077.22;;;28.90;26.27
77739;BME280;66904;59.926;30.404;2023-02-13T21:16:21;101081.63;;;28.91;26.18
77739;BME280;66904;59.926;30.404;2023-02-13T21:21:27;101093.56;;;28.90;26.32
77739;BME280;66904;59.926;30.404;2023-02-13T21:26:28;101109.13;;;28.90;26.21
77739;BME280;66904;59.926;30.404;2023-02-13T21:31:38;101104.94;;;28.87;25.89
77739;BME280;66904;59.926;30.404;2023-02-13T21:36:39;101112.66;;;28.90;25.88
77739;BME280;66904;59.926;30.404;2023-02-13T21:41:42;101118.09;;;28.90;25.85
77739;BME280;66904;59.926;30.404;2023-02-13T21:46:43;101128.19;;;28.90;25.82
77739;BME280;66904;59.926;30.404;2023-02-13T21:51:44;101132.41;;;28.86;25.62
77739;BME280;66904;59.926;30.404;2023-02-13T21:56:45;101118.00;;;28.79;25.46
77739;BME280;66904;59.926;30.404;2023-02-13T22:01:47;101131.63;;;28.79;25.36
77739;BME280;66904;59.926;30.404;2023-02-13T22:06:50;101143.56;;;28.78;25.83
77739;BME280;66904;59.926;30.404;2023-02-13T22:11:57;101145.84;;;28.81;26.03
77739;BME280;66904;59.926;30.404;2023-02-13T22:16:58;101148.41;;;28.76;25.63
77739;BME280;66904;59.926;30.404;2023-02-13T22:22:01;101158.91;;;28.72;26.27
77739;BME280;66904;59.926;30.404;2023-02-13T22:27:02;101163.06;;;28.74;25.58
77739;BME280;66904;59.926;30.404;2023-02-13T22:32:04;101173.97;;;28.74;25.87
77739;BME280;66904;59.926;30.404;2023-02-13T22:37:04;101182.97;;;28.75;25.85
77739;BME280;66904;59.926;30.404;2023-02-13T22:42:05;101189.03;;;28.77;25.70
77739;BME280;66904;59.926;30.404;2023-02-13T22:47:06;101196.78;;;28.80;25.50
77739;BME280;66904;59.926;30.404;2023-02-13T22:57:50;101214.31;;;28.84;25.66
77739;BME280;66904;59.926;30.404;2023-02-13T23:03:05;101212.84;;;28.88;25.59
77739;BME280;66904;59.926;30.404;2023-02-13T23:13:42;101228.78;;;28.85;25.34
77739;BME280;66904;59.926;30.404;2023-02-13T23:30:16;101245.97;;;28.85;25.39
77739;BME280;66904;59.926;30.404;2023-02-13T23:35:45;101246.53;;;28.94;25.54
77739;BME280;66904;59.926;30.404;2023-02-13T23:41:10;101252.03;;;28.87;25.00
77739;BME280;66904;59.926;30.404;2023-02-13T23:51:57;101281.13;;;28.93;25.54
